Mary Bennett — WDC4592 — position and weather

sailwx.info

Track history (hours):
 
Tides and Currents Weather Stations Pressure Air Temp Water Temp Dewpoint Dewpoint Depression Visibility Wind Speed Wind Dir Waves Ship Positions

Mary Bennett

Owner: Savannah Marine Services, Savannah, GA. More information available from US FCC via Universal Licensing System and Coast Guard Vessel Documentation Center.

Last reported at 2016-Jun-28 12:33 UTC. Time now 2016-Jun-28 13:27 UTC.
Position N 32°05' W 081°01'.

Length 21 m; draft 2.3 m.

Type: Tug. MMSI: 367027140.

Date/timePositionNaut miles runAvg speedWind from/ knotsBaromVisibWave heightAir tempDewpointWater temp
2016-Jun-28 12:33N 32°05' W 081°01'1 1.2
2016-Jun-28 11:33N 32°05' W 081°03'3 2.7
2016-Jun-28 10:33N 32°05' W 081°06'0 0.0
2016-Jun-28 03:33N 32°05' W 081°06'1 0.9
2016-Jun-28 02:33N 32°06' W 081°07'1 0.9
2016-Jun-28 01:33N 32°06' W 081°07'1 0.5
2016-Jun-28 00:33N 32°07' W 081°08'0 0.0
2016-Jun-27 23:33N 32°07' W 081°08'0 0.0
2016-Jun-27 22:33N 32°07' W 081°08'0 0.0
2016-Jun-27 21:33N 32°07' W 081°08'0 0.1
2016-Jun-27 20:33N 32°07' W 081°08'0 0.1
2016-Jun-27 19:33N 32°07' W 081°08'2 2.4
2016-Jun-27 18:33N 32°05' W 081°06'0 0.0
2016-Jun-27 01:04N 32°05' W 081°06'1 2.2
2016-Jun-27 00:33N 32°06' W 081°07'3 2.9
2016-Jun-26 23:33N 32°09' W 081°08'0 0.3
2016-Jun-26 22:33N 32°09' W 081°08'0 0.2
2016-Jun-26 21:33N 32°09' W 081°09'0 0.0
2016-Jun-26 20:33N 32°09' W 081°09'0 0.0
2016-Jun-26 19:33N 32°09' W 081°09'0 0.2
2016-Jun-26 18:33N 32°09' W 081°09'0 0.0
2016-Jun-26 17:33N 32°09' W 081°09'0 0.0
2016-Jun-26 16:33N 32°09' W 081°09'0 0.2
2016-Jun-26 15:33N 32°09' W 081°08'0 0.0
2016-Jun-26 14:33N 32°09' W 081°09'0 0.0
2016-Jun-26 13:33N 32°09' W 081°09'0 0.2
2016-Jun-26 12:33N 32°09' W 081°09'0 0.0
2016-Jun-26 11:34N 32°09' W 081°09'0 0.0
2016-Jun-26 10:34N 32°09' W 081°09'0 0.1
2016-Jun-26 09:33N 32°09' W 081°09'0 0.1
2016-Jun-26 08:34N 32°09' W 081°08'0 0.1
2016-Jun-26 07:33N 32°09' W 081°09'0 0.0
2016-Jun-26 06:33N 32°09' W 081°09'0 0.0
2016-Jun-26 05:32N 32°09' W 081°09'0 0.1
2016-Jun-26 04:34N 32°09' W 081°09'0 0.0
2016-Jun-26 03:33N 32°09' W 081°09'0 0.0
2016-Jun-26 02:34N 32°09' W 081°08'0 0.1
2016-Jun-26 01:33N 32°09' W 081°09'0 0.0
2016-Jun-26 00:33N 32°09' W 081°09'0 0.0
2016-Jun-25 23:33N 32°09' W 081°09'0 0.1
2016-Jun-25 22:33N 32°09' W 081°09'0 0.0
2016-Jun-25 21:33N 32°08' W 081°08'0 0.0
2016-Jun-25 20:33N 32°09' W 081°08'0 0.2
2016-Jun-25 19:34N 32°09' W 081°09'0 0.2
2016-Jun-25 18:33N 32°09' W 081°09'0 0.2
2016-Jun-25 17:33N 32°09' W 081°09'0 0.1
2016-Jun-25 16:34N 32°09' W 081°09'1 0.9
2016-Jun-25 15:33N 32°08' W 081°08'3 3.3
2016-Jun-25 14:33N 32°05' W 081°06'  
2016-Jun-22 06:33N 32°05' W 081°06'0 0.4
2016-Jun-22 05:33N 32°06' W 081°06'0 0.3
2016-Jun-22 04:33N 32°05' W 081°06'0 0.3
2016-Jun-22 03:33N 32°06' W 081°06'0 0.3
2016-Jun-22 02:33N 32°05' W 081°06'1 0.5
2016-Jun-22 01:33N 32°06' W 081°06'3 2.5
2016-Jun-22 00:33N 32°08' W 081°08'0 0.1
2016-Jun-21 23:33N 32°08' W 081°08'0 0.3
2016-Jun-21 22:33N 32°08' W 081°08'0 0.4
2016-Jun-21 21:33N 32°08' W 081°08'0 0.0
2016-Jun-21 20:33N 32°08' W 081°08'0 0.3
2016-Jun-21 19:33N 32°08' W 081°08'1 0.6
2016-Jun-21 18:33N 32°07' W 081°08'0 0.3
2016-Jun-21 17:33N 32°07' W 081°08'0 0.3
2016-Jun-21 16:33N 32°08' W 081°08'0 0.2
2016-Jun-21 15:33N 32°07' W 081°08'0 0.3
2016-Jun-21 14:33N 32°07' W 081°08'0 0.4
2016-Jun-21 13:33N 32°08' W 081°08'1 0.6
2016-Jun-21 12:33N 32°07' W 081°08'1 0.7
2016-Jun-21 11:33N 32°08' W 081°08'1 0.6
2016-Jun-21 10:33N 32°08' W 081°08'0 0.4
2016-Jun-21 09:33N 32°09' W 081°09'0 0.1
2016-Jun-21 08:33N 32°08' W 081°09'2 1.6
2016-Jun-21 07:34N 32°07' W 081°08'1 0.5
2016-Jun-21 06:34N 32°07' W 081°08'1 0.3
2016-Jun-21 04:33N 32°08' W 081°09'0 0.0
2016-Jun-21 03:34N 32°08' W 081°09'0 0.5
2016-Jun-21 02:33N 32°09' W 081°09'0 0.2
2016-Jun-21 01:33N 32°08' W 081°09'0 0.2
2016-Jun-21 00:34N 32°08' W 081°09'0 0.4
2016-Jun-20 23:33N 32°09' W 081°09'0 0.2
2016-Jun-20 22:34N 32°08' W 081°09'0 0.1
2016-Jun-20 21:34N 32°08' W 081°09'1 0.7
2016-Jun-20 20:33N 32°08' W 081°08'0 0.4
2016-Jun-20 19:34N 32°08' W 081°09'0 0.2
2016-Jun-20 18:33N 32°08' W 081°09'0 0.1
2016-Jun-20 17:33N 32°08' W 081°09'1 0.2
2016-Jun-20 11:27N 32°07' W 081°08'0 0.1
2016-Jun-20 10:33N 32°07' W 081°08'0 0.1
2016-Jun-20 09:33N 32°07' W 081°08'1 1.2
2016-Jun-20 08:33N 32°08' W 081°09'0 0.2
2016-Jun-20 07:33N 32°08' W 081°08'0 0.3
2016-Jun-20 06:32N 32°08' W 081°08'0 0.0
2016-Jun-20 05:33N 32°08' W 081°08'0 0.2
2016-Jun-20 04:33N 32°08' W 081°08'0 0.1
2016-Jun-20 03:33N 32°08' W 081°08'0 0.1
2016-Jun-20 02:33N 32°08' W 081°08'0 0.2
2016-Jun-20 01:33N 32°08' W 081°08'1 0.9
2016-Jun-20 00:33N 32°09' W 081°09'0 0.1
2016-Jun-19 23:33N 32°09' W 081°09'0 0.1
2016-Jun-19 22:33N 32°09' W 081°09'0 0.1
2016-Jun-19 21:33N 32°09' W 081°09'0 0.1
2016-Jun-19 20:33N 32°09' W 081°09'0 0.1
2016-Jun-19 19:33N 32°09' W 081°09'0 0.0
2016-Jun-19 18:33N 32°09' W 081°09'0 0.1
2016-Jun-19 17:33N 32°09' W 081°09'0 0.2
2016-Jun-19 16:33N 32°08' W 081°09'0 0.4
2016-Jun-19 15:33N 32°08' W 081°08'0 0.4
2016-Jun-19 14:33N 32°08' W 081°09'0 0.2
2016-Jun-19 13:33N 32°08' W 081°09'0 0.2
2016-Jun-19 12:33N 32°09' W 081°09'0 0.2
2016-Jun-19 11:33N 32°08' W 081°09'0 0.3
2016-Jun-19 10:33N 32°08' W 081°09'0 0.5
2016-Jun-19 09:33N 32°09' W 081°09'0 0.5
2016-Jun-19 08:33N 32°08' W 081°09'0 0.1
2016-Jun-19 07:33N 32°08' W 081°08'1 0.5
2016-Jun-19 06:33N 32°08' W 081°09'0 0.1
2016-Jun-19 05:33N 32°08' W 081°09'0 0.0
2016-Jun-19 04:33N 32°08' W 081°09'0 0.0
2016-Jun-19 03:33N 32°08' W 081°09'0 0.5
2016-Jun-19 02:33N 32°08' W 081°08'0 0.1
2016-Jun-19 01:33N 32°08' W 081°09'1 0.6
2016-Jun-19 00:33N 32°09' W 081°09'0 0.1
2016-Jun-18 23:33N 32°09' W 081°09'0 0.1
2016-Jun-18 22:33N 32°09' W 081°09'0 0.1
2016-Jun-18 21:33N 32°09' W 081°09'0 0.0
2016-Jun-18 20:33N 32°09' W 081°09'0 0.0
2016-Jun-18 19:33N 32°09' W 081°09'0 0.1
2016-Jun-18 18:33N 32°09' W 081°09'0 0.1
2016-Jun-18 17:33N 32°09' W 081°09'0 0.1
2016-Jun-18 16:33N 32°09' W 081°09'0 0.1
2016-Jun-18 15:33N 32°09' W 081°09'0 0.1
2016-Jun-18 14:33N 32°09' W 081°08'0 0.2
2016-Jun-18 13:33N 32°09' W 081°09'0 0.0
2016-Jun-18 12:33N 32°09' W 081°09'  
Track history (hours):
 
Tides and Currents Weather Stations Pressure Air Temp Water Temp Dewpoint Dewpoint Depression Visibility Wind Speed Wind Dir Waves Ship Positions

Mary Bennett

Owner: Savannah Marine Services, Savannah, GA. More information available from US FCC via Universal Licensing System and Coast Guard Vessel Documentation Center.

Last reported at 2016-Jun-28 12:33 UTC. Time now 2016-Jun-28 13:27 UTC.
Position N 32°05' W 081°01'.

Length 21 m; draft 2.3 m.

Type: Tug. MMSI: 367027140.

Date/timePositionNaut miles runAvg speedWind from/ knotsBaromVisibWave heightAir tempDewpointWater temp
2016-Jun-28 12:33N 32°05' W 081°01'1 1.2
2016-Jun-28 11:33N 32°05' W 081°03'3 2.7
2016-Jun-28 10:33N 32°05' W 081°06'0 0.0
2016-Jun-28 03:33N 32°05' W 081°06'1 0.9
2016-Jun-28 02:33N 32°06' W 081°07'1 0.9
2016-Jun-28 01:33N 32°06' W 081°07'1 0.5
2016-Jun-28 00:33N 32°07' W 081°08'0 0.0
2016-Jun-27 23:33N 32°07' W 081°08'0 0.0
2016-Jun-27 22:33N 32°07' W 081°08'0 0.0
2016-Jun-27 21:33N 32°07' W 081°08'0 0.1
2016-Jun-27 20:33N 32°07' W 081°08'0 0.1
2016-Jun-27 19:33N 32°07' W 081°08'2 2.4
2016-Jun-27 18:33N 32°05' W 081°06'0 0.0
2016-Jun-27 01:04N 32°05' W 081°06'1 2.2
2016-Jun-27 00:33N 32°06' W 081°07'3 2.9
2016-Jun-26 23:33N 32°09' W 081°08'0 0.3
2016-Jun-26 22:33N 32°09' W 081°08'0 0.2
2016-Jun-26 21:33N 32°09' W 081°09'0 0.0
2016-Jun-26 20:33N 32°09' W 081°09'0 0.0
2016-Jun-26 19:33N 32°09' W 081°09'0 0.2
2016-Jun-26 18:33N 32°09' W 081°09'0 0.0
2016-Jun-26 17:33N 32°09' W 081°09'0 0.0
2016-Jun-26 16:33N 32°09' W 081°09'0 0.2
2016-Jun-26 15:33N 32°09' W 081°08'0 0.0
2016-Jun-26 14:33N 32°09' W 081°09'0 0.0
2016-Jun-26 13:33N 32°09' W 081°09'0 0.2
2016-Jun-26 12:33N 32°09' W 081°09'0 0.0
2016-Jun-26 11:34N 32°09' W 081°09'0 0.0
2016-Jun-26 10:34N 32°09' W 081°09'0 0.1
2016-Jun-26 09:33N 32°09' W 081°09'0 0.1
2016-Jun-26 08:34N 32°09' W 081°08'0 0.1
2016-Jun-26 07:33N 32°09' W 081°09'0 0.0
2016-Jun-26 06:33N 32°09' W 081°09'0 0.0
2016-Jun-26 05:32N 32°09' W 081°09'0 0.1
2016-Jun-26 04:34N 32°09' W 081°09'0 0.0
2016-Jun-26 03:33N 32°09' W 081°09'0 0.0
2016-Jun-26 02:34N 32°09' W 081°08'0 0.1
2016-Jun-26 01:33N 32°09' W 081°09'0 0.0
2016-Jun-26 00:33N 32°09' W 081°09'0 0.0
2016-Jun-25 23:33N 32°09' W 081°09'0 0.1
2016-Jun-25 22:33N 32°09' W 081°09'0 0.0
2016-Jun-25 21:33N 32°08' W 081°08'0 0.0
2016-Jun-25 20:33N 32°09' W 081°08'0 0.2
2016-Jun-25 19:34N 32°09' W 081°09'0 0.2
2016-Jun-25 18:33N 32°09' W 081°09'0 0.2
2016-Jun-25 17:33N 32°09' W 081°09'0 0.1
2016-Jun-25 16:34N 32°09' W 081°09'1 0.9
2016-Jun-25 15:33N 32°08' W 081°08'3 3.3
2016-Jun-25 14:33N 32°05' W 081°06'  
2016-Jun-22 06:33N 32°05' W 081°06'0 0.4
2016-Jun-22 05:33N 32°06' W 081°06'0 0.3
2016-Jun-22 04:33N 32°05' W 081°06'0 0.3
2016-Jun-22 03:33N 32°06' W 081°06'0 0.3
2016-Jun-22 02:33N 32°05' W 081°06'1 0.5
2016-Jun-22 01:33N 32°06' W 081°06'3 2.5
2016-Jun-22 00:33N 32°08' W 081°08'0 0.1
2016-Jun-21 23:33N 32°08' W 081°08'0 0.3
2016-Jun-21 22:33N 32°08' W 081°08'0 0.4
2016-Jun-21 21:33N 32°08' W 081°08'0 0.0
2016-Jun-21 20:33N 32°08' W 081°08'0 0.3
2016-Jun-21 19:33N 32°08' W 081°08'1 0.6
2016-Jun-21 18:33N 32°07' W 081°08'0 0.3
2016-Jun-21 17:33N 32°07' W 081°08'0 0.3
2016-Jun-21 16:33N 32°08' W 081°08'0 0.2
2016-Jun-21 15:33N 32°07' W 081°08'0 0.3
2016-Jun-21 14:33N 32°07' W 081°08'0 0.4
2016-Jun-21 13:33N 32°08' W 081°08'1 0.6
2016-Jun-21 12:33N 32°07' W 081°08'1 0.7
2016-Jun-21 11:33N 32°08' W 081°08'1 0.6
2016-Jun-21 10:33N 32°08' W 081°08'0 0.4
2016-Jun-21 09:33N 32°09' W 081°09'0 0.1
2016-Jun-21 08:33N 32°08' W 081°09'2 1.6
2016-Jun-21 07:34N 32°07' W 081°08'1 0.5
2016-Jun-21 06:34N 32°07' W 081°08'1 0.3
2016-Jun-21 04:33N 32°08' W 081°09'0 0.0
2016-Jun-21 03:34N 32°08' W 081°09'0 0.5
2016-Jun-21 02:33N 32°09' W 081°09'0 0.2
2016-Jun-21 01:33N 32°08' W 081°09'0 0.2
2016-Jun-21 00:34N 32°08' W 081°09'0 0.4
2016-Jun-20 23:33N 32°09' W 081°09'0 0.2
2016-Jun-20 22:34N 32°08' W 081°09'0 0.1
2016-Jun-20 21:34N 32°08' W 081°09'1 0.7
2016-Jun-20 20:33N 32°08' W 081°08'0 0.4
2016-Jun-20 19:34N 32°08' W 081°09'0 0.2
2016-Jun-20 18:33N 32°08' W 081°09'0 0.1
2016-Jun-20 17:33N 32°08' W 081°09'1 0.2
2016-Jun-20 11:27N 32°07' W 081°08'0 0.1
2016-Jun-20 10:33N 32°07' W 081°08'0 0.1
2016-Jun-20 09:33N 32°07' W 081°08'1 1.2
2016-Jun-20 08:33N 32°08' W 081°09'0 0.2
2016-Jun-20 07:33N 32°08' W 081°08'0 0.3
2016-Jun-20 06:32N 32°08' W 081°08'0 0.0
2016-Jun-20 05:33N 32°08' W 081°08'0 0.2
2016-Jun-20 04:33N 32°08' W 081°08'0 0.1
2016-Jun-20 03:33N 32°08' W 081°08'0 0.1
2016-Jun-20 02:33N 32°08' W 081°08'0 0.2
2016-Jun-20 01:33N 32°08' W 081°08'1 0.9
2016-Jun-20 00:33N 32°09' W 081°09'0 0.1
2016-Jun-19 23:33N 32°09' W 081°09'0 0.1
2016-Jun-19 22:33N 32°09' W 081°09'0 0.1
2016-Jun-19 21:33N 32°09' W 081°09'0 0.1
2016-Jun-19 20:33N 32°09' W 081°09'0 0.1
2016-Jun-19 19:33N 32°09' W 081°09'0 0.0
2016-Jun-19 18:33N 32°09' W 081°09'0 0.1
2016-Jun-19 17:33N 32°09' W 081°09'0 0.2
2016-Jun-19 16:33N 32°08' W 081°09'0 0.4
2016-Jun-19 15:33N 32°08' W 081°08'0 0.4
2016-Jun-19 14:33N 32°08' W 081°09'0 0.2
2016-Jun-19 13:33N 32°08' W 081°09'0 0.2
2016-Jun-19 12:33N 32°09' W 081°09'0 0.2
2016-Jun-19 11:33N 32°08' W 081°09'0 0.3
2016-Jun-19 10:33N 32°08' W 081°09'0 0.5
2016-Jun-19 09:33N 32°09' W 081°09'0 0.5
2016-Jun-19 08:33N 32°08' W 081°09'0 0.1
2016-Jun-19 07:33N 32°08' W 081°08'1 0.5
2016-Jun-19 06:33N 32°08' W 081°09'0 0.1
2016-Jun-19 05:33N 32°08' W 081°09'0 0.0
2016-Jun-19 04:33N 32°08' W 081°09'0 0.0
2016-Jun-19 03:33N 32°08' W 081°09'0 0.5
2016-Jun-19 02:33N 32°08' W 081°08'0 0.1
2016-Jun-19 01:33N 32°08' W 081°09'1 0.6
2016-Jun-19 00:33N 32°09' W 081°09'0 0.1
2016-Jun-18 23:33N 32°09' W 081°09'0 0.1
2016-Jun-18 22:33N 32°09' W 081°09'0 0.1
2016-Jun-18 21:33N 32°09' W 081°09'0 0.0
2016-Jun-18 20:33N 32°09' W 081°09'0 0.0
2016-Jun-18 19:33N 32°09' W 081°09'0 0.1
2016-Jun-18 18:33N 32°09' W 081°09'0 0.1
2016-Jun-18 17:33N 32°09' W 081°09'0 0.1
2016-Jun-18 16:33N 32°09' W 081°09'0 0.1
2016-Jun-18 15:33N 32°09' W 081°09'0 0.1
2016-Jun-18 14:33N 32°09' W 081°08'0 0.2
2016-Jun-18 13:33N 32°09' W 081°09'0 0.0
2016-Jun-18 12:33N 32°09' W 081°09'  

Dump ship's entire track history